Time;durP1;ratioP1;P1;durP2;ratioP2;P2;SDS_P1;SDS_P2;PMS_P1;PMS_P2;Temp;Humidity;BMP_temperature;BMP_pressure;BME280_temperature;BME280_humidity;BME280_pressure;Samples;Min_cycle;Max_cycle;Signal;HPM_P1;HPM_P2
2021/06/15 00:02:05;;;;;;;6.27;5.30;;;;;;;14.43;63.33;99769.84;5015818;28;20230;-85
2021/06/15 00:04:32;;;;;;;7.90;5.50;;;;;;;14.40;63.72;99764.13;5015316;28;20235;-84
2021/06/15 00:06:58;;;;;;;7.20;5.47;;;;;;;14.35;63.66;99758.59;5015874;28;20290;-87
2021/06/15 00:09:25;;;;;;;8.07;5.60;;;;;;;14.32;63.83;99754.53;5015611;28;20234;-84
2021/06/15 00:11:52;;;;;;;6.17;5.07;;;;;;;14.31;63.53;99758.28;5015373;28;20646;-86
2021/06/15 00:14:18;;;;;;;7.87;5.27;;;;;;;14.25;63.54;99766.50;5015169;28;20285;-84
2021/06/15 00:16:45;;;;;;;5.70;5.10;;;;;;;14.11;63.49;99756.00;5003267;28;20258;-80
2021/06/15 00:19:12;;;;;;;7.80;5.17;;;;;;;14.15;63.73;99756.34;5020456;28;20562;-82
2021/06/15 00:21:39;;;;;;;8.13;5.87;;;;;;;14.08;64.07;99756.50;5022013;28;20541;-79
2021/06/15 00:24:10;;;;;;;8.07;5.90;;;;;;;14.13;64.09;99768.44;5023226;28;20226;-79
2021/06/15 00:26:38;;;;;;;6.90;5.83;;;;;;;14.07;64.22;99764.81;5040238;28;20629;-81
2021/06/15 00:29:06;;;;;;;6.67;5.77;;;;;;;14.05;64.60;99758.81;5024353;28;20227;-82
2021/06/15 00:31:34;;;;;;;6.80;5.70;;;;;;;14.05;64.38;99764.22;5039679;28;20284;-84
2021/06/15 00:34:01;;;;;;;8.10;6.03;;;;;;;14.03;64.40;99753.69;5023438;28;20226;-79
2021/06/15 00:36:28;;;;;;;6.73;5.77;;;;;;;14.07;64.07;99762.09;5042302;28;20233;-80
2021/06/15 00:38:55;;;;;;;7.13;5.80;;;;;;;14.02;64.33;99757.44;5040652;28;20275;-81
2021/06/15 00:41:24;;;;;;;10.80;6.23;;;;;;;14.06;63.77;99774.75;5046593;28;20309;-79
2021/06/15 00:44:02;;;;;;;11.17;6.27;;;;;;;14.03;63.88;99766.34;5044793;28;20237;-78
2021/06/15 00:46:29;;;;;;;6.43;5.40;;;;;;;14.04;64.02;99763.38;5048603;28;20223;-81
2021/06/15 00:48:56;;;;;;;10.97;6.23;;;;;;;14.00;64.30;99766.78;5047521;28;20218;-79
2021/06/15 00:51:25;;;;;;;11.20;6.20;;;;;;;13.94;63.96;99757.00;5029905;28;20229;-79
2021/06/15 00:53:55;;;;;;;9.73;5.83;;;;;;;13.87;64.10;99743.66;5030790;28;20230;-79
2021/06/15 00:56:38;;;;;;;9.47;6.50;;;;;;;13.92;64.41;99753.72;5048217;28;20225;-78
2021/06/15 00:59:08;;;;;;;9.30;6.73;;;;;;;13.89;64.44;99755.03;5056820;23;20230;-79
2021/06/15 01:01:39;;;;;;;10.97;6.07;;;;;;;13.86;64.89;99749.28;5048909;28;20283;-78
2021/06/15 01:04:24;;;;;;;10.90;6.80;;;;;;;13.84;64.92;99748.69;5049391;28;20256;-79
2021/06/15 01:07:11;;;;;;;11.20;7.07;;;;;;;13.83;64.93;99750.56;5057461;23;20602;-78
2021/06/15 01:10:46;;;;;;;9.30;6.70;;;;;;;13.76;65.30;99743.69;5050721;28;20233;-79
2021/06/15 01:13:56;;;;;;;13.07;7.30;;;;;;;13.70;65.34;99741.94;5052977;28;20190;-78
2021/06/15 01:16:50;;;;;;;9.07;6.83;;;;;;;13.62;65.67;99749.31;5053078;28;20183;-78
2021/06/15 01:20:09;;;;;;;13.07;7.37;;;;;;;13.58;65.83;99740.06;5024002;23;20266;-78
2021/06/15 01:23:44;;;;;;;9.13;6.37;;;;;;;13.53;65.74;99737.28;5040314;23;20226;-78
2021/06/15 01:26:55;;;;;;;11.37;6.50;;;;;;;13.52;66.01;99734.84;5053316;28;20218;-78
2021/06/15 01:29:43;;;;;;;9.50;6.60;;;;;;;13.51;65.61;99731.31;5058606;23;20226;-78
2021/06/15 01:32:38;;;;;;;9.60;6.70;;;;;;;13.48;65.79;99731.81;5022054;28;20209;-78
2021/06/15 01:35:32;;;;;;;8.90;6.70;;;;;;;13.35;65.99;99715.88;5041227;23;20222;-78
2021/06/15 01:38:52;;;;;;;10.90;6.40;;;;;;;13.42;66.04;99726.53;5053533;28;20189;-78
2021/06/15 01:42:15;;;;;;;10.07;6.00;;;;;;;13.35;66.46;99725.81;5059085;23;20226;-78
2021/06/15 01:45:17;;;;;;;9.10;6.20;;;;;;;13.30;66.80;99715.75;5053929;28;20241;-77
2021/06/15 01:48:59;;;;;;;9.00;6.67;;;;;;;13.27;67.08;99718.13;5073749;23;20233;-77
2021/06/15 01:52:21;;;;;;;8.03;6.60;;;;;;;13.12;66.94;99705.13;5038253;23;20221;-78
2021/06/15 01:55:25;;;;;;;8.27;5.83;;;;;;;13.19;66.87;99711.22;5051308;28;20213;-78
2021/06/15 01:58:20;;;;;;;10.30;7.17;;;;;;;13.13;67.01;99704.91;5035734;28;20244;-78
2021/06/15 02:01:17;;;;;;;8.97;6.53;;;;;;;12.98;68.03;99701.81;5065353;23;20206;-78
2021/06/15 02:04:52;;;;;;;8.50;6.53;;;;;;;12.95;68.14;99704.97;5052402;28;20218;-78
2021/06/15 02:07:56;;;;;;;6.83;6.10;;;;;;;12.94;68.62;99697.13;5035216;23;20224;-78
2021/06/15 02:11:12;;;;;;;7.33;6.03;;;;;;;12.96;68.07;99703.13;5014192;28;20215;-78
2021/06/15 02:14:06;;;;;;;9.27;6.67;;;;;;;12.94;67.97;99706.03;5017574;23;20220;-78
2021/06/15 02:17:26;;;;;;;6.90;6.03;;;;;;;12.89;67.81;99700.53;5019892;23;20294;-78
2021/06/15 02:20:50;;;;;;;7.97;6.10;;;;;;;12.89;67.64;99697.03;4971876;28;20247;-78
2021/06/15 02:24:16;;;;;;;8.60;6.03;;;;;;;12.86;67.92;99706.38;5035418;23;20226;-78
2021/06/15 02:27:11;;;;;;;6.93;6.10;;;;;;;12.75;68.55;99699.13;5059450;23;20222;-77
2021/06/15 02:30:15;;;;;;;8.13;6.07;;;;;;;12.69;68.61;99703.53;5016209;23;20220;-77
2021/06/15 02:33:11;;;;;;;6.70;6.10;;;;;;;12.60;68.38;99702.25;5025884;28;20199;-78
2021/06/15 02:36:11;;;;;;;6.70;6.00;;;;;;;12.55;68.89;99704.78;5031193;23;20249;-78
2021/06/15 02:38:59;;;;;;;7.47;6.17;;;;;;;12.52;69.13;99712.50;5037893;23;20215;-78
2021/06/15 02:42:10;;;;;;;8.43;5.97;;;;;;;12.46;69.60;99711.56;5023832;23;20287;-78
2021/06/15 02:44:47;;;;;;;7.57;6.77;;;;;;;12.43;69.62;99713.88;5026439;23;20214;-77
2021/06/15 02:47:29;;;;;;;8.53;6.10;;;;;;;12.41;69.69;99716.00;5036630;28;20279;-78
2021/06/15 02:50:19;;;;;;;7.83;6.60;;;;;;;12.43;69.90;99711.19;5022120;28;20231;-77
2021/06/15 02:53:20;;;;;;;9.13;6.80;;;;;;;12.41;69.68;99714.09;5066706;23;20240;-78
2021/06/15 02:56:22;;;;;;;8.00;6.80;;;;;;;12.42;69.56;99725.69;5077457;23;20226;-78
2021/06/15 03:00:00;;;;;;;7.53;6.30;;;;;;;12.46;69.50;99722.31;5149309;23;20237;-77
2021/06/15 03:03:15;;;;;;;7.30;6.40;;;;;;;12.47;69.83;99726.63;5061710;23;20229;-78
2021/06/15 03:06:14;;;;;;;7.33;6.50;;;;;;;12.45;69.87;99733.31;5061810;23;20210;-77
2021/06/15 03:09:24;;;;;;;7.17;5.90;;;;;;;12.45;69.92;99725.25;5043339;28;20245;-78
2021/06/15 03:12:25;;;;;;;7.80;6.43;;;;;;;12.49;69.43;99724.53;5053333;28;20249;-78
2021/06/15 03:15:46;;;;;;;7.00;6.30;;;;;;;12.56;69.27;99727.94;5024062;23;20255;-78
2021/06/15 03:19:02;;;;;;;8.70;6.73;;;;;;;12.55;69.49;99726.28;4978305;28;20659;-78
2021/06/15 03:22:04;;;;;;;7.20;6.10;;;;;;;12.64;68.77;99721.44;5001505;23;20531;-77
2021/06/15 03:25:01;;;;;;;9.63;6.60;;;;;;;12.61;69.07;99711.13;5031529;28;20643;-78
2021/06/15 03:27:48;;;;;;;9.23;6.37;;;;;;;12.73;68.43;99714.66;5024992;23;20218;-78
2021/06/15 03:31:17;;;;;;;8.27;6.60;;;;;;;12.81;68.27;99725.06;5045346;23;20241;-77
2021/06/15 03:34:45;;;;;;;8.80;6.20;;;;;;;12.90;67.95;99730.94;5050605;23;20237;-77
2021/06/15 03:37:42;;;;;;;6.47;5.87;;;;;;;12.99;67.59;99734.91;5041102;28;20224;-79
2021/06/15 03:40:20;;;;;;;9.33;6.63;;;;;;;13.04;67.19;99737.72;5054534;28;20218;-78
2021/06/15 03:42:54;;;;;;;7.47;6.20;;;;;;;13.12;66.94;99727.47;5038135;28;20230;-78
2021/06/15 03:49:14;;;;;;;8.33;5.93;;;;;;;13.41;65.85;99725.72;5036560;23;20302;-77
2021/06/15 03:52:09;;;;;;;8.87;5.93;;;;;;;13.46;65.46;99733.06;5017900;28;20210;-78
2021/06/15 03:54:48;;;;;;;6.60;6.00;;;;;;;13.60;65.46;99739.84;5048569;23;20692;-77
2021/06/15 03:57:29;;;;;;;7.70;5.90;;;;;;;13.69;65.11;99743.81;5048473;23;20246;-78
2021/06/15 04:00:40;;;;;;;7.77;5.90;;;;;;;13.85;65.12;99745.78;5020035;23;20259;-78
2021/06/15 04:03:14;;;;;;;6.67;5.50;;;;;;;14.61;63.14;99749.94;5024701;23;20183;-78
2021/06/15 04:06:23;;;;;;;7.80;5.77;;;;;;;15.67;59.57;99743.56;5032836;28;20226;-77
2021/06/15 04:09:10;;;;;;;6.83;5.50;;;;;;;16.80;56.09;99731.03;5029288;28;20234;-82
2021/06/15 04:11:38;;;;;;;7.63;5.30;;;;;;;17.67;53.71;99733.31;5017149;28;20309;-89
2021/06/15 04:14:05;;;;;;;7.20;5.40;;;;;;;18.30;51.41;99739.50;4998748;28;20323;-88
2021/06/15 04:16:32;;;;;;;6.50;5.00;;;;;;;18.68;50.18;99741.78;4983205;28;20281;-88
2021/06/15 04:18:59;;;;;;;7.67;5.20;;;;;;;18.87;49.28;99744.78;4999369;28;20232;-88
2021/06/15 04:21:26;;;;;;;5.67;4.97;;;;;;;19.09;48.95;99736.34;4982785;28;20296;-83
2021/06/15 04:23:56;;;;;;;5.30;4.80;;;;;;;19.47;47.96;99741.22;4982997;28;20233;-85
2021/06/15 04:26:23;;;;;;;5.43;4.70;;;;;;;20.01;46.40;99744.06;4982866;28;20237;-86
2021/06/15 04:28:50;;;;;;;6.90;4.97;;;;;;;20.78;44.86;99744.44;4982803;28;20306;-87
2021/06/15 04:31:17;;;;;;;7.00;5.10;;;;;;;21.66;42.44;99761.38;5016558;28;20270;-84
2021/06/15 04:33:47;;;;;;;7.47;4.53;;;;;;;22.29;41.05;99796.69;4983408;28;20271;-90
2021/06/15 04:36:16;;;;;;;6.50;4.70;;;;;;;23.22;38.75;99845.09;4998947;28;20251;-86
2021/06/15 04:38:45;;;;;;;6.03;4.60;;;;;;;23.11;38.55;99767.09;4983121;28;20282;-85
2021/06/15 04:41:18;;;;;;;6.27;4.83;;;;;;;21.86;41.35;99742.06;4999498;28;20667;-88
2021/06/15 04:43:52;;;;;;;6.23;4.73;;;;;;;21.13;43.31;99744.22;4982976;28;20281;-81
2021/06/15 04:46:22;;;;;;;15.33;10.77;;;;;;;20.67;44.46;99747.22;4982524;28;20227;-85
2021/06/15 04:48:55;;;;;;;8.90;5.10;;;;;;;20.14;45.38;99746.16;4999216;28;20222;-87
2021/06/15 04:51:22;;;;;;;6.47;5.00;;;;;;;19.91;46.21;99757.69;4982775;28;20230;-86
2021/06/15 04:53:49;;;;;;;4.93;4.43;;;;;;;19.63;47.21;99750.16;4999221;28;20254;-88
2021/06/15 04:56:17;;;;;;;6.63;5.20;;;;;;;19.56;47.52;99744.19;4998307;28;20661;-87
2021/06/15 04:58:44;;;;;;;6.20;4.90;;;;;;;19.45;48.07;99745.31;4982672;28;20239;-85
2021/06/15 05:01:11;;;;;;;5.47;4.73;;;;;;;19.43;48.40;99756.41;4982708;28;20230;-79
2021/06/15 05:03:39;;;;;;;6.80;4.97;;;;;;;19.34;48.37;99756.16;4982237;28;20284;-87
2021/06/15 05:06:06;;;;;;;7.60;5.00;;;;;;;19.34;48.87;99764.31;4998214;28;20233;-88
2021/06/15 05:08:54;;;;;;;6.63;5.47;;;;;;;19.42;48.79;99753.97;4982370;28;20310;-83
2021/06/15 05:11:21;;;;;;;5.57;4.70;;;;;;;19.60;48.64;99762.38;4982636;28;20290;-84
2021/06/15 05:13:49;;;;;;;6.30;4.83;;;;;;;19.49;48.68;99749.09;4998591;28;20238;-87
2021/06/15 05:16:16;;;;;;;5.90;4.73;;;;;;;19.66;48.42;99752.31;4982207;28;20537;-82
2021/06/15 05:18:44;;;;;;;7.73;5.63;;;;;;;19.66;48.03;99757.75;4998625;28;20230;-86
2021/06/15 05:21:16;;;;;;;8.37;5.27;;;;;;;19.84;48.10;99761.78;4998345;28;20239;-82
2021/06/15 05:24:01;;;;;;;6.97;5.17;;;;;;;19.91;47.71;99756.88;4998461;28;20250;-80
2021/06/15 05:26:29;;;;;;;8.63;4.93;;;;;;;20.17;47.52;99767.38;4982610;28;20269;-85
2021/06/15 05:28:56;;;;;;;7.20;5.10;;;;;;;20.30;47.24;99762.41;4979288;28;20249;-87
2021/06/15 05:31:23;;;;;;;6.27;5.27;;;;;;;20.32;47.27;99763.78;4998617;28;20237;-82
2021/06/15 05:33:49;;;;;;;7.63;5.17;;;;;;;20.48;47.59;99757.16;4981953;28;20654;-84
2021/06/15 05:36:16;;;;;;;5.27;4.53;;;;;;;20.55;47.19;99751.41;4981683;28;20222;-85
2021/06/15 05:38:43;;;;;;;6.10;4.90;;;;;;;20.65;47.00;99751.34;4978363;28;20322;-88
2021/06/15 05:41:10;;;;;;;6.23;4.90;;;;;;;20.54;46.90;99752.50;4962917;28;20281;-84
2021/06/15 05:43:37;;;;;;;5.50;5.00;;;;;;;20.49;46.10;99755.25;4946936;28;20271;-84
2021/06/15 05:46:04;;;;;;;9.50;4.87;;;;;;;20.75;45.39;99764.09;4978422;28;20234;-87
2021/06/15 05:48:31;;;;;;;6.20;4.97;;;;;;;20.80;46.43;99761.31;4978979;28;20223;-89
2021/06/15 05:50:58;;;;;;;7.33;5.00;;;;;;;20.87;46.07;99761.81;4978540;28;20274;-87
2021/06/15 05:53:26;;;;;;;8.90;4.97;;;;;;;20.94;44.84;99770.47;4978710;28;20231;-86
2021/06/15 05:55:55;;;;;;;5.93;5.00;;;;;;;21.06;45.21;99754.56;4946679;28;20583;-88
2021/06/15 05:58:21;;;;;;;5.30;4.80;;;;;;;21.30;45.03;99763.66;4962448;28;20262;-88
2021/06/15 06:00:49;;;;;;;7.13;4.90;;;;;;;21.42;44.74;99764.06;4962432;28;20675;-81
2021/06/15 06:03:22;;;;;;;5.80;4.57;;;;;;;21.50;42.11;99771.66;4978394;28;20239;-88
2021/06/15 06:08:34;;;;;;;6.17;4.80;;;;;;;21.75;43.30;99764.28;4996760;28;20243;-87
2021/06/15 06:11:01;;;;;;;10.90;5.10;;;;;;;22.01;42.19;99775.75;4982147;28;20740;-83
2021/06/15 06:13:28;;;;;;;10.70;5.27;;;;;;;21.99;41.29;99773.31;4982456;28;20286;-88
2021/06/15 06:15:57;;;;;;;11.57;5.00;;;;;;;22.24;40.90;99759.38;4983147;28;20227;-84
2021/06/15 06:18:23;;;;;;;12.27;5.57;;;;;;;22.44;40.13;99773.84;4998932;28;20699;-87
2021/06/15 06:20:50;;;;;;;8.30;5.40;;;;;;;21.94;40.68;99762.47;4985554;28;20521;-85
2021/06/15 06:23:18;;;;;;;5.73;4.83;;;;;;;22.20;41.15;99782.06;4977571;28;20235;-89
2021/06/15 06:25:46;;;;;;;8.20;5.13;;;;;;;22.53;40.10;99774.81;4965793;28;20232;-88
2021/06/15 06:28:13;;;;;;;7.90;5.20;;;;;;;22.27;39.93;99771.59;4995215;28;20555;-88
2021/06/15 06:30:39;;;;;;;8.63;5.60;;;;;;;22.28;40.68;99771.31;4997393;28;20275;-89
2021/06/15 06:33:06;;;;;;;6.77;5.30;;;;;;;22.61;40.50;99768.69;4997537;28;20258;-82
2021/06/15 06:35:33;;;;;;;7.33;6.10;;;;;;;22.96;40.30;99778.28;5000009;28;20650;-87
2021/06/15 06:38:00;;;;;;;6.03;4.87;;;;;;;23.16;39.73;99773.31;5001473;28;20233;-87
2021/06/15 06:40:27;;;;;;;7.57;5.30;;;;;;;22.76;40.01;99761.13;5000971;28;20223;-89
2021/06/15 06:42:53;;;;;;;6.90;5.23;;;;;;;21.93;40.83;99767.09;4985173;28;20244;-85
2021/06/15 06:45:20;;;;;;;8.70;5.20;;;;;;;22.60;39.98;99767.88;5001006;28;20274;-87
2021/06/15 06:47:47;;;;;;;7.40;5.03;;;;;;;22.96;39.85;99770.06;4967007;28;20247;-87
2021/06/15 06:50:14;;;;;;;9.73;5.90;;;;;;;22.38;39.94;99759.44;4983843;28;20603;-85
2021/06/15 06:52:41;;;;;;;10.27;5.73;;;;;;;22.58;40.89;99759.19;4983988;28;20232;-82
2021/06/15 06:55:09;;;;;;;10.00;5.60;;;;;;;22.45;41.11;99768.06;5000413;28;20581;-83
2021/06/15 06:57:35;;;;;;;6.97;4.97;;;;;;;22.82;40.71;99767.28;4984197;28;20291;-85
2021/06/15 07:00:04;;;;;;;6.47;5.77;;;;;;;22.59;41.07;99760.78;4999847;28;20231;-87
2021/06/15 07:02:30;;;;;;;7.00;5.57;;;;;;;22.95;40.73;99760.28;4983828;28;20228;-88
2021/06/15 07:04:57;;;;;;;7.20;5.47;;;;;;;23.16;40.63;99769.75;4999927;28;20524;-88
2021/06/15 07:07:24;;;;;;;7.67;5.70;;;;;;;23.39;40.02;99771.53;5000449;28;20284;-86
2021/06/15 07:09:50;;;;;;;8.47;5.13;;;;;;;23.33;40.46;99770.00;4999989;28;20289;-88
2021/06/15 07:12:18;;;;;;;6.73;5.37;;;;;;;23.25;40.52;99757.84;4999897;28;20240;-85
2021/06/15 07:14:44;;;;;;;8.37;5.07;;;;;;;23.57;39.52;99775.34;5000622;28;20230;-87
2021/06/15 07:17:11;;;;;;;6.50;4.90;;;;;;;23.94;38.91;99769.69;5000409;28;20246;-87
2021/06/15 07:19:38;;;;;;;6.07;4.83;;;;;;;24.28;38.28;99773.97;4999558;28;20229;-89
2021/06/15 07:22:06;;;;;;;7.13;5.20;;;;;;;24.32;38.04;99772.25;5016958;28;20259;-86
2021/06/15 07:24:34;;;;;;;6.40;5.03;;;;;;;23.91;38.79;99773.06;4984089;28;20236;-88
2021/06/15 07:27:01;;;;;;;7.67;5.43;;;;;;;23.73;38.87;99773.97;4999954;28;20233;-89
2021/06/15 07:29:28;;;;;;;7.80;5.17;;;;;;;24.22;37.89;99769.72;5017718;28;20262;-88
2021/06/15 07:31:55;;;;;;;6.70;4.70;;;;;;;24.34;37.93;99754.41;4984002;28;20315;-87
2021/06/15 07:34:24;;;;;;;5.47;4.77;;;;;;;24.60;36.96;99748.34;4983483;28;20237;-86
2021/06/15 07:36:51;;;;;;;8.30;5.55;;;;;;;24.84;36.20;99757.09;5000167;28;20226;-86
2021/06/15 07:39:18;;;;;;;5.70;5.10;;;;;;;24.96;35.40;99751.91;5000656;28;20320;-85
2021/06/15 07:41:45;;;;;;;5.43;4.57;;;;;;;25.10;35.19;99758.13;4983704;28;20651;-87
2021/06/15 07:44:13;;;;;;;7.60;4.57;;;;;;;25.29;34.68;99753.22;4999366;28;20227;-83
2021/06/15 07:46:40;;;;;;;5.75;4.80;;;;;;;25.26;34.77;99745.66;4999504;28;20622;-85
2021/06/15 07:49:07;;;;;;;7.32;4.88;;;;;;;25.47;34.93;99742.38;4983607;28;20738;-84
2021/06/15 07:51:37;;;;;;;6.97;4.68;;;;;;;25.61;34.15;99745.88;5016778;28;20234;-87
2021/06/15 07:54:05;;;;;;;5.57;4.88;;;;;;;25.62;34.34;99745.53;4999249;28;20227;-85
2021/06/15 07:56:32;;;;;;;6.05;4.82;;;;;;;25.75;32.86;99735.59;4999346;28;20277;-84
2021/06/15 07:58:59;;;;;;;8.60;5.00;;;;;;;25.92;32.92;99743.88;4999910;28;20321;-85
2021/06/15 08:01:26;;;;;;;5.95;4.85;;;;;;;25.97;32.90;99735.50;4999237;28;20254;-86
2021/06/15 08:03:53;;;;;;;5.88;4.78;;;;;;;25.72;31.94;99734.28;4996218;28;20238;-85
2021/06/15 08:06:19;;;;;;;8.48;4.82;;;;;;;25.68;32.67;99729.75;4980630;28;20249;-80
2021/06/15 08:08:46;;;;;;;8.68;5.25;;;;;;;25.84;33.07;99742.75;4983287;28;20227;-85
2021/06/15 08:11:13;;;;;;;7.65;4.68;;;;;;;25.98;32.83;99733.56;4982827;28;20231;-86
2021/06/15 08:13:41;;;;;;;5.65;4.45;;;;;;;25.82;32.46;99727.69;4981083;28;20598;-82
2021/06/15 08:16:07;;;;;;;9.32;4.80;;;;;;;25.70;33.28;99733.81;4997271;28;20885;-84
2021/06/15 08:18:34;;;;;;;5.88;4.60;;;;;;;25.09;34.22;99733.78;4981865;28;20261;-86
2021/06/15 08:21:01;;;;;;;6.47;4.45;;;;;;;25.61;33.63;99735.72;4998333;28;20250;-84
2021/06/15 08:23:29;;;;;;;5.93;4.35;;;;;;;25.86;32.78;99732.25;4981983;28;20232;-85
2021/06/15 08:25:56;;;;;;;7.95;4.50;;;;;;;25.98;32.42;99731.66;4982272;28;20439;-85
2021/06/15 08:28:23;;;;;;;6.85;4.68;;;;;;;26.22;31.98;99729.28;4978131;28;20318;-85
2021/06/15 08:30:51;;;;;;;7.18;4.65;;;;;;;26.42;31.53;99722.38;4978390;28;20257;-85
2021/06/15 08:33:18;;;;;;;5.82;4.68;;;;;;;26.13;31.81;99727.66;4978634;28;20229;-85
2021/06/15 08:35:44;;;;;;;5.40;4.15;;;;;;;25.65;32.11;99725.72;4978588;28;20231;-84
2021/06/15 08:38:12;;;;;;;5.28;4.38;;;;;;;25.69;31.75;99723.13;4995316;28;20224;-85
2021/06/15 08:40:39;;;;;;;7.93;4.72;;;;;;;25.42;32.70;99726.88;4978791;28;20238;-85
2021/06/15 08:43:05;;;;;;;6.38;4.30;;;;;;;25.74;31.44;99728.50;4978660;28;20334;-83
2021/06/15 08:45:32;;;;;;;5.40;4.30;;;;;;;26.08;31.75;99722.31;4978376;28;20500;-86
2021/06/15 08:47:59;;;;;;;6.88;4.25;;;;;;;26.13;31.90;99722.16;4978561;28;20642;-84
2021/06/15 08:50:27;;;;;;;5.95;4.47;;;;;;;26.32;31.89;99702.66;4977856;28;20231;-84
2021/06/15 08:52:54;;;;;;;6.18;4.18;;;;;;;26.62;31.47;99715.44;4978275;28;20303;-84
2021/06/15 08:55:22;;;;;;;6.07;4.53;;;;;;;26.86;31.09;99721.28;4962431;28;20574;-85
2021/06/15 08:57:56;;;;;;;5.35;4.10;;;;;;;26.56;31.04;99712.03;4978190;28;20232;-86
2021/06/15 09:00:22;;;;;;;8.50;4.45;;;;;;;26.21;30.81;99713.97;4993077;28;20229;-82
2021/06/15 09:02:49;;;;;;;4.95;4.35;;;;;;;26.68;30.78;99703.16;4979380;28;20229;-85
2021/06/15 09:05:18;;;;;;;5.50;4.18;;;;;;;26.85;30.67;99710.56;4978002;28;20225;-82
2021/06/15 09:07:57;;;;;;;6.35;4.63;;;;;;;26.95;30.58;99715.75;5010359;28;20624;-86
2021/06/15 09:10:29;;;;;;;8.40;4.50;;;;;;;27.12;30.56;99708.28;4993975;28;20241;-86
2021/06/15 09:12:56;;;;;;;4.90;4.03;;;;;;;27.37;30.18;99698.34;4986588;28;20237;-84
2021/06/15 09:15:23;;;;;;;4.68;3.97;;;;;;;27.60;29.02;99698.94;4958691;28;20247;-83
2021/06/15 09:17:50;;;;;;;4.72;4.25;;;;;;;27.67;28.94;99706.69;4961571;28;20234;-85
2021/06/15 09:20:22;;;;;;;5.97;4.20;;;;;;;27.82;29.14;99704.16;4977740;28;20294;-83
2021/06/15 09:23:02;;;;;;;6.47;4.40;;;;;;;27.29;30.38;99706.63;4962116;28;20292;-85
2021/06/15 09:25:31;;;;;;;8.43;4.88;;;;;;;26.54;31.09;99699.75;4993950;28;20229;-84
2021/06/15 09:27:59;;;;;;;7.28;4.40;;;;;;;27.17;29.93;99705.34;4993922;28;20225;-85
2021/06/15 09:30:28;;;;;;;5.38;4.25;;;;;;;27.26;29.40;99693.53;4977494;28;20330;-84
2021/06/15 09:32:56;;;;;;;5.85;3.70;;;;;;;27.60;27.63;99704.44;4993845;28;20306;-83
2021/06/15 09:35:28;;;;;;;5.00;3.22;;;;;;;27.20;26.41;99706.66;4994990;28;20353;-84
2021/06/15 09:37:57;;;;;;;5.40;3.95;;;;;;;27.54;29.22;99706.56;4993963;28;20234;-83
2021/06/15 09:40:28;;;;;;;4.60;3.70;;;;;;;27.79;28.73;99704.03;4993455;28;20606;-87
2021/06/15 09:42:58;;;;;;;4.03;2.92;;;;;;;27.78;25.29;99700.47;4995528;28;20648;-86
2021/06/15 09:45:33;;;;;;;5.28;2.80;;;;;;;27.22;25.40;99696.13;4999101;28;20528;-86
2021/06/15 09:48:29;;;;;;;3.70;3.20;;;;;;;26.91;25.54;99701.06;4999081;28;20530;-84
2021/06/15 09:51:00;;;;;;;5.15;2.92;;;;;;;27.33;24.80;99675.38;4997558;28;20561;-87
2021/06/15 09:53:28;;;;;;;5.68;3.40;;;;;;;28.06;24.98;99700.78;4998692;28;20650;-83
2021/06/15 09:56:09;;;;;;;6.22;3.65;;;;;;;28.01;25.08;99693.53;4997939;28;20223;-87
2021/06/15 09:58:49;;;;;;;7.13;3.70;;;;;;;27.25;27.03;99695.47;4997332;28;20629;-85
2021/06/15 10:01:40;;;;;;;5.95;3.25;;;;;;;27.56;25.21;99687.78;4997375;28;20232;-86
2021/06/15 10:04:13;;;;;;;4.65;3.80;;;;;;;27.90;26.11;99691.50;4965412;28;20287;-84
2021/06/15 10:06:46;;;;;;;3.83;3.22;;;;;;;27.94;24.96;99687.75;4997916;28;20248;-84
2021/06/15 10:09:21;;;;;;;4.75;3.35;;;;;;;28.20;26.01;99681.28;4962741;28;20235;-83
2021/06/15 10:11:48;;;;;;;3.53;2.83;;;;;;;27.89;24.66;99690.69;4967835;28;20221;-85
2021/06/15 10:14:15;;;;;;;3.75;3.00;;;;;;;28.10;25.51;99687.16;4982128;28;20257;-87
2021/06/15 10:16:42;;;;;;;8.02;3.60;;;;;;;28.01;25.17;99687.22;4998190;28;20235;-85
2021/06/15 10:19:10;;;;;;;6.95;3.65;;;;;;;28.46;24.79;99684.66;4981813;28;20727;-88
2021/06/15 10:21:37;;;;;;;5.38;3.20;;;;;;;29.16;23.37;99677.38;4997952;28;20315;-86
2021/06/15 10:24:06;;;;;;;4.07;3.40;;;;;;;29.28;23.81;99683.72;4997666;28;20280;-86
2021/06/15 10:26:34;;;;;;;5.97;3.90;;;;;;;29.21;23.88;99677.94;4981916;28;20234;-85
2021/06/15 10:29:01;;;;;;;8.82;4.55;;;;;;;29.86;23.14;99672.63;4981903;28;20236;-86
2021/06/15 10:31:30;;;;;;;5.00;3.75;;;;;;;30.46;22.86;99669.78;4965586;28;20305;-86
2021/06/15 10:33:57;;;;;;;5.93;3.70;;;;;;;30.93;22.13;99669.94;4997804;28;20239;-85
2021/06/15 10:36:46;;;;;;;6.80;3.53;;;;;;;31.18;21.79;99661.50;4980786;28;20307;-85
2021/06/15 10:39:37;;;;;;;5.05;3.90;;;;;;;29.07;25.39;99654.59;4981352;28;20234;-87
2021/06/15 10:42:18;;;;;;;6.10;3.95;;;;;;;30.19;24.60;99659.44;4980486;28;20313;-87
2021/06/15 10:45:16;;;;;;;9.75;4.10;;;;;;;29.48;24.25;99657.22;4997852;28;20306;-86
2021/06/15 10:48:21;;;;;;;4.95;3.88;;;;;;;29.73;24.45;99661.56;4997310;28;20317;-86
2021/06/15 10:50:50;;;;;;;5.72;4.00;;;;;;;29.14;24.63;99652.06;4980830;28;20627;-85
2021/06/15 10:53:19;;;;;;;6.82;3.70;;;;;;;29.85;23.20;99651.66;4981583;28;20239;-86
2021/06/15 10:56:13;;;;;;;6.22;3.92;;;;;;;30.16;23.25;99636.09;4980127;28;20232;-87
2021/06/15 10:58:42;;;;;;;6.93;4.30;;;;;;;30.48;23.46;99639.81;4980453;28;20537;-86
2021/06/15 11:01:16;;;;;;;4.80;3.83;;;;;;;30.03;23.38;99639.25;4997399;28;20223;-86
2021/06/15 11:03:49;;;;;;;6.72;3.95;;;;;;;30.27;23.27;99632.84;4997353;28;20291;-86
2021/06/15 11:06:19;;;;;;;8.27;3.90;;;;;;;30.42;22.91;99632.13;4981177;28;20691;-87
2021/06/15 11:08:46;;;;;;;5.25;3.90;;;;;;;30.89;22.57;99616.44;4964370;28;20638;-86
2021/06/15 11:11:16;;;;;;;7.53;4.20;;;;;;;31.51;22.42;99625.16;4977584;28;20231;-87
2021/06/15 11:13:51;;;;;;;4.70;4.15;;;;;;;31.23;22.59;99609.44;4993762;28;20287;-88
2021/06/15 11:16:43;;;;;;;6.68;4.22;;;;;;;30.72;23.25;99611.25;4963943;28;20222;-86
2021/06/15 11:19:14;;;;;;;4.97;4.28;;;;;;;30.67;22.62;99613.47;4996108;28;20235;-87
2021/06/15 11:21:44;;;;;;;5.13;4.18;;;;;;;31.15;22.25;99621.50;4996982;28;20492;-85
2021/06/15 11:24:20;;;;;;;4.40;3.90;;;;;;;31.45;22.02;99617.13;4997289;28;20267;-88
2021/06/15 11:26:48;;;;;;;6.88;4.20;;;;;;;31.13;22.99;99614.72;4996762;28;20285;-86
2021/06/15 11:29:36;;;;;;;5.18;3.65;;;;;;;31.56;22.74;99606.34;4980878;28;20686;-87
2021/06/15 11:32:27;;;;;;;6.10;4.20;;;;;;;31.29;22.66;99604.47;4996299;28;20227;-87
2021/06/15 11:34:59;;;;;;;5.97;4.28;;;;;;;31.54;23.47;99599.53;4996801;28;20568;-87
2021/06/15 11:37:37;;;;;;;7.95;4.75;;;;;;;30.53;24.49;99606.41;4997652;28;20571;-85
2021/06/15 11:40:10;;;;;;;4.65;4.10;;;;;;;30.57;25.48;99604.53;4997159;28;20293;-82
2021/06/15 11:42:38;;;;;;;6.05;4.32;;;;;;;31.12;22.55;99597.34;4996490;28;20255;-86
2021/06/15 11:45:17;;;;;;;6.47;4.78;;;;;;;31.36;23.13;99601.84;4980785;28;20636;-86
2021/06/15 11:47:47;;;;;;;6.80;4.65;;;;;;;30.49;23.96;99586.16;4996139;28;20654;-85
2021/06/15 11:50:26;;;;;;;8.57;4.68;;;;;;;30.03;24.46;99592.28;4996282;28;20635;-86
2021/06/15 11:53:05;;;;;;;6.57;4.57;;;;;;;31.26;22.86;99586.59;4996509;28;20258;-87
2021/06/15 11:55:35;;;;;;;7.43;4.97;;;;;;;31.90;22.41;99586.16;4980119;28;20658;-86
2021/06/15 11:58:03;;;;;;;5.15;4.32;;;;;;;32.14;22.60;99584.31;4995692;28;20277;-85
2021/06/15 12:00:32;;;;;;;6.95;4.85;;;;;;;31.13;23.25;99574.00;4980028;28;20247;-86
2021/06/15 12:03:04;;;;;;;7.20;4.93;;;;;;;30.09;24.24;99566.03;4996182;28;20231;-87
2021/06/15 12:05:31;;;;;;;5.47;4.93;;;;;;;30.03;24.81;99578.47;4999085;28;20246;-83
2021/06/15 12:07:58;;;;;;;6.60;5.00;;;;;;;29.94;24.92;99569.53;4982938;28;20331;-87
2021/06/15 12:10:26;;;;;;;6.53;4.45;;;;;;;30.64;23.69;99576.28;4976561;28;20232;-86
2021/06/15 12:13:03;;;;;;;8.32;4.88;;;;;;;31.14;23.92;99578.38;4980539;28;20578;-86
2021/06/15 12:15:35;;;;;;;6.82;4.70;;;;;;;30.70;23.70;99574.06;4980097;28;20235;-86
2021/06/15 12:18:08;;;;;;;7.25;4.43;;;;;;;31.27;22.88;99579.09;4979035;28;20231;-87
2021/06/15 12:20:37;;;;;;;9.00;4.90;;;;;;;31.56;22.55;99566.75;4982513;28;20223;-83
2021/06/15 12:23:29;;;;;;;8.20;4.78;;;;;;;32.44;22.63;99571.44;4999208;28;20284;-86
2021/06/15 12:26:16;;;;;;;8.85;5.40;;;;;;;33.14;21.82;99560.03;4998213;28;20308;-87